Time;durP1;ratioP1;P1;durP2;ratioP2;P2;SDS_P1;SDS_P2;PMS_P1;PMS_P2;Temp;Humidity;BMP_temperature;BMP_pressure;BME280_temperature;BME280_humidity;BME280_pressure;Samples;Min_cycle;Max_cycle;Signal;HPM_P1;HPM_P2
2023/08/31 00:01:12;;;;;;;9.80;5.30;;;10.20;99.90;;;;;;7372949;19;20575;-63
2023/08/31 00:03:38;;;;;;;10.75;5.95;;;10.20;99.90;;;;;;7370304;19;20018;-63
2023/08/31 00:06:07;;;;;;;11.23;5.50;;;10.30;99.90;;;;;;7368645;19;20019;-64
2023/08/31 00:08:34;;;;;;;11.70;5.95;;;10.30;99.90;;;;;;7369050;19;20023;-64
2023/08/31 00:11:01;;;;;;;12.80;5.07;;;10.30;99.90;;;;;;7364610;19;20018;-63
2023/08/31 00:13:28;;;;;;;10.90;5.72;;;10.30;99.90;;;;;;7371191;19;20034;-64
2023/08/31 00:15:57;;;;;;;12.55;5.43;;;10.30;99.90;;;;;;7370806;19;20010;-63
2023/08/31 00:18:24;;;;;;;11.95;5.20;;;10.30;99.90;;;;;;7370162;19;20362;-64
2023/08/31 00:20:51;;;;;;;12.07;5.00;;;10.30;99.90;;;;;;7374008;19;20026;-63
2023/08/31 00:23:18;;;;;;;11.05;5.72;;;10.40;99.90;;;;;;7371724;19;20057;-64
2023/08/31 00:25:48;;;;;;;7.80;4.78;;;10.60;99.90;;;;;;7371008;19;20018;-64
2023/08/31 00:28:15;;;;;;;9.40;4.57;;;10.70;99.90;;;;;;7373008;19;20586;-64
2023/08/31 00:31:04;;;;;;;7.88;4.50;;;10.70;99.90;;;;;;7366267;19;20038;-63
2023/08/31 00:33:33;;;;;;;12.98;4.95;;;10.90;99.90;;;;;;7374422;19;20486;-64
2023/08/31 00:36:03;;;;;;;12.10;5.03;;;11.00;99.90;;;;;;7363557;19;20021;-64
2023/08/31 00:38:31;;;;;;;8.98;5.10;;;11.10;99.90;;;;;;7366864;19;20059;-64
2023/08/31 00:40:57;;;;;;;8.43;4.95;;;11.10;99.90;;;;;;7364243;19;20023;-63
2023/08/31 00:43:24;;;;;;;13.93;5.80;;;11.10;99.90;;;;;;7369904;19;20124;-63
2023/08/31 00:46:11;;;;;;;12.02;5.80;;;11.10;99.90;;;;;;7366185;19;20015;-64
2023/08/31 00:48:38;;;;;;;14.43;5.95;;;11.10;99.90;;;;;;7371137;19;20022;-64
2023/08/31 00:51:06;;;;;;;11.27;5.57;;;11.10;99.90;;;;;;7365041;19;20442;-64
2023/08/31 00:53:33;;;;;;;9.73;4.78;;;11.00;99.90;;;;;;7361731;19;20508;-64
2023/08/31 00:56:00;;;;;;;12.13;4.80;;;11.00;99.90;;;;;;7366508;19;20394;-64
2023/08/31 00:58:27;;;;;;;8.20;5.22;;;11.00;99.90;;;;;;7366432;19;20019;-65
2023/08/31 01:01:12;;;;;;;7.30;3.78;;;11.00;99.90;;;;;;7370635;19;20018;-65
2023/08/31 01:04:18;;;;;;;10.07;3.90;;;11.00;99.90;;;;;;7362793;19;20014;-65
2023/08/31 01:06:59;;;;;;;5.50;3.58;;;11.00;99.90;;;;;;7369072;19;20429;-64
2023/08/31 01:09:43;;;;;;;5.55;3.05;;;10.90;99.90;;;;;;7367886;19;20402;-66
2023/08/31 01:12:31;;;;;;;5.28;3.13;;;10.90;99.90;;;;;;7368867;19;20038;-64
2023/08/31 01:15:04;;;;;;;5.35;3.17;;;10.90;99.90;;;;;;7368519;19;20452;-64
2023/08/31 01:17:54;;;;;;;5.95;3.63;;;10.90;99.90;;;;;;7370779;19;20022;-64
2023/08/31 01:20:33;;;;;;;7.43;3.28;;;10.80;99.90;;;;;;7359506;19;20729;-64
2023/08/31 01:23:09;;;;;;;8.18;3.35;;;10.80;99.90;;;;;;7366993;19;20022;-64
2023/08/31 01:25:36;;;;;;;9.60;3.38;;;10.70;99.90;;;;;;7367173;19;20505;-64
2023/08/31 01:28:23;;;;;;;9.05;3.70;;;10.60;99.90;;;;;;7366001;19;20087;-64
2023/08/31 01:30:49;;;;;;;8.48;3.80;;;10.60;99.90;;;;;;7363764;19;20954;-64
2023/08/31 01:33:35;;;;;;;6.90;3.95;;;10.50;99.90;;;;;;7366104;19;20732;-64
2023/08/31 01:36:08;;;;;;;10.80;4.80;;;10.50;99.90;;;;;;7367077;19;20591;-64
2023/08/31 01:38:39;;;;;;;14.82;5.40;;;10.50;99.90;;;;;;7369976;19;20047;-63
2023/08/31 01:41:10;;;;;;;9.48;5.45;;;10.50;99.90;;;;;;7366890;19;20028;-64
2023/08/31 01:43:39;;;;;;;11.23;5.28;;;10.50;99.90;;;;;;7369957;19;20022;-63
2023/08/31 01:46:07;;;;;;;11.52;5.45;;;10.50;99.90;;;;;;7365279;19;20425;-63
2023/08/31 01:48:42;;;;;;;7.85;5.95;;;10.60;99.90;;;;;;7365593;19;20525;-63
2023/08/31 01:51:11;;;;;;;9.90;5.93;;;10.50;99.90;;;;;;7362152;19;20014;-63
2023/08/31 01:53:37;;;;;;;9.95;5.68;;;10.60;99.90;;;;;;7360685;19;20037;-63
2023/08/31 01:56:04;;;;;;;12.60;6.20;;;10.50;99.90;;;;;;7368503;19;20026;-64
2023/08/31 01:58:31;;;;;;;12.65;7.00;;;10.50;99.90;;;;;;7365048;19;20022;-63
2023/08/31 02:01:17;;;;;;;15.65;7.75;;;10.50;99.90;;;;;;7363128;19;20031;-63
2023/08/31 02:03:44;;;;;;;13.38;7.63;;;10.50;99.90;;;;;;7365448;19;20097;-64
2023/08/31 02:06:30;;;;;;;13.65;8.07;;;10.50;99.90;;;;;;7365681;19;20458;-63
2023/08/31 02:08:57;;;;;;;16.30;9.63;;;10.50;99.90;;;;;;7371181;19;20046;-63
2023/08/31 02:11:23;;;;;;;15.60;9.40;;;10.60;99.90;;;;;;7363845;19;20018;-63
2023/08/31 02:13:49;;;;;;;14.10;9.90;;;10.60;99.90;;;;;;7366665;19;20026;-63
2023/08/31 02:16:15;;;;;;;15.63;10.88;;;10.70;99.90;;;;;;7363484;19;20019;-64
2023/08/31 02:18:41;;;;;;;16.73;11.02;;;10.70;99.90;;;;;;7366921;19;20599;-64
2023/08/31 02:21:07;;;;;;;13.85;10.77;;;10.80;99.90;;;;;;7353736;19;20037;-64
2023/08/31 02:23:34;;;;;;;15.88;10.95;;;10.80;99.90;;;;;;7359393;19;20018;-63
2023/08/31 02:26:01;;;;;;;20.05;11.93;;;10.80;99.90;;;;;;7361667;19;20432;-64
2023/08/31 02:28:28;;;;;;;18.33;11.38;;;10.80;99.90;;;;;;7360470;19;20437;-64
2023/08/31 02:31:02;;;;;;;12.43;10.68;;;10.80;99.90;;;;;;7367383;19;20312;-64
2023/08/31 02:33:31;;;;;;;15.40;10.30;;;10.70;99.90;;;;;;7368287;19;20372;-64
2023/08/31 02:35:57;;;;;;;12.40;9.52;;;10.70;99.90;;;;;;7363869;19;20015;-63
2023/08/31 02:38:43;;;;;;;12.10;8.93;;;10.60;99.90;;;;;;7362488;19;20114;-64
2023/08/31 02:41:10;;;;;;;15.95;9.50;;;10.60;99.90;;;;;;7362907;19;20592;-63
2023/08/31 02:43:36;;;;;;;12.65;8.98;;;10.60;99.90;;;;;;7363334;19;20018;-63
2023/08/31 02:46:03;;;;;;;14.13;9.52;;;10.50;99.90;;;;;;7362780;19;20730;-64
2023/08/31 02:48:32;;;;;;;10.40;8.43;;;10.50;99.90;;;;;;7360588;19;20052;-64
2023/08/31 02:51:02;;;;;;;10.70;8.60;;;10.40;99.90;;;;;;7367744;19;20490;-63
2023/08/31 02:53:32;;;;;;;13.75;8.18;;;10.40;99.90;;;;;;7361278;19;20565;-64
2023/08/31 02:55:58;;;;;;;10.95;8.30;;;10.30;99.90;;;;;;7363694;19;20041;-64
2023/08/31 02:58:25;;;;;;;11.65;7.85;;;10.30;99.90;;;;;;7364197;19;20023;-64
2023/08/31 03:00:53;;;;;;;9.93;8.73;;;10.30;99.90;;;;;;7368863;19;20041;-64
2023/08/31 03:03:19;;;;;;;11.52;7.78;;;10.30;99.90;;;;;;7376642;19;20056;-63
2023/08/31 03:05:46;;;;;;;9.45;7.75;;;10.20;99.90;;;;;;7366966;19;20505;-64
2023/08/31 03:08:12;;;;;;;12.07;8.10;;;10.20;99.90;;;;;;7372437;19;20917;-65
2023/08/31 03:10:39;;;;;;;11.13;8.40;;;10.10;99.90;;;;;;7372184;19;20018;-63
2023/08/31 03:13:05;;;;;;;12.13;8.50;;;10.10;99.90;;;;;;7373189;19;20022;-63
2023/08/31 03:15:34;;;;;;;11.98;9.50;;;10.10;99.90;;;;;;7373900;19;20044;-64
2023/08/31 03:18:03;;;;;;;11.73;9.13;;;10.10;99.90;;;;;;7372934;19;20028;-63
2023/08/31 03:20:30;;;;;;;13.57;10.50;;;10.20;99.90;;;;;;7373624;19;20014;-63
2023/08/31 03:23:00;;;;;;;13.65;10.68;;;10.20;99.90;;;;;;7376681;19;20022;-62
2023/08/31 03:25:28;;;;;;;11.77;10.45;;;10.20;99.90;;;;;;7365703;19;20042;-63
2023/08/31 03:27:54;;;;;;;13.07;10.73;;;10.20;99.90;;;;;;7376825;19;20587;-63
2023/08/31 03:30:21;;;;;;;14.88;11.82;;;10.30;99.90;;;;;;7372247;19;20027;-63
2023/08/31 03:32:47;;;;;;;15.77;11.48;;;10.20;99.90;;;;;;7374981;19;20363;-64
2023/08/31 03:35:14;;;;;;;13.15;11.48;;;10.20;99.90;;;;;;7372032;19;20703;-64
2023/08/31 03:37:40;;;;;;;11.55;10.45;;;10.30;99.90;;;;;;7375701;19;20029;-63
2023/08/31 03:40:07;;;;;;;13.65;10.93;;;10.20;99.90;;;;;;7375044;19;20545;-63
2023/08/31 03:42:35;;;;;;;12.40;10.02;;;10.20;99.90;;;;;;7375697;19;20481;-63
2023/08/31 03:45:03;;;;;;;12.05;9.85;;;10.20;99.90;;;;;;7373046;19;20023;-64
2023/08/31 03:47:30;;;;;;;11.65;9.52;;;10.20;99.90;;;;;;7373450;19;20018;-63
2023/08/31 03:49:56;;;;;;;12.68;10.35;;;10.30;99.90;;;;;;7370980;19;20111;-63
2023/08/31 03:52:23;;;;;;;11.75;9.50;;;10.30;99.90;;;;;;7372804;19;20021;-63
2023/08/31 03:54:51;;;;;;;14.25;10.63;;;10.30;99.90;;;;;;7371781;19;20502;-63
2023/08/31 03:57:17;;;;;;;12.15;10.70;;;10.30;99.90;;;;;;7373822;19;20540;-63
2023/08/31 03:59:43;;;;;;;11.70;10.13;;;10.30;99.90;;;;;;7370993;19;20049;-63
2023/08/31 04:02:10;;;;;;;15.55;10.88;;;10.30;99.90;;;;;;7372033;19;20023;-63
2023/08/31 04:04:36;;;;;;;13.20;10.27;;;10.40;99.90;;;;;;7372994;19;20025;-63
2023/08/31 04:07:02;;;;;;;12.70;10.55;;;10.40;99.90;;;;;;7370592;19;20030;-63
2023/08/31 04:09:32;;;;;;;12.65;10.77;;;10.40;99.90;;;;;;7374540;19;20492;-63
2023/08/31 04:11:59;;;;;;;13.20;10.25;;;10.40;99.90;;;;;;7370911;19;20480;-64
2023/08/31 04:14:29;;;;;;;11.60;10.23;;;10.40;99.90;;;;;;7372118;19;20699;-63
2023/08/31 04:16:56;;;;;;;12.30;10.98;;;10.50;99.90;;;;;;7374796;19;20022;-64
2023/08/31 04:19:42;;;;;;;12.95;10.43;;;10.50;99.90;;;;;;7363615;19;20014;-64
2023/08/31 04:22:08;;;;;;;14.40;11.52;;;10.60;99.90;;;;;;7369684;19;20053;-64
2023/08/31 04:24:34;;;;;;;11.73;10.43;;;10.60;99.90;;;;;;7373108;19;20018;-64
2023/08/31 04:27:02;;;;;;;14.13;10.68;;;10.60;99.90;;;;;;7372641;19;20541;-64
2023/08/31 04:29:28;;;;;;;15.80;10.80;;;10.70;99.90;;;;;;7371785;19;20026;-64
2023/08/31 04:32:14;;;;;;;14.63;10.25;;;10.70;99.90;;;;;;7366052;19;20019;-64
2023/08/31 04:35:02;;;;;;;11.57;9.82;;;10.70;99.90;;;;;;7371879;19;20054;-64
2023/08/31 04:37:29;;;;;;;11.27;9.43;;;10.70;99.90;;;;;;7373521;19;20688;-64
2023/08/31 04:39:56;;;;;;;9.98;8.98;;;10.70;99.90;;;;;;7371009;19;20117;-64
2023/08/31 04:42:22;;;;;;;11.85;9.50;;;10.70;99.90;;;;;;7364032;19;20023;-65
2023/08/31 04:44:50;;;;;;;11.32;9.68;;;10.70;99.90;;;;;;7372840;19;20018;-63
2023/08/31 04:47:16;;;;;;;12.32;9.35;;;10.70;99.90;;;;;;7369152;19;20043;-65
2023/08/31 04:49:42;;;;;;;12.30;8.23;;;10.70;99.90;;;;;;7371697;19;20044;-64
2023/08/31 04:52:09;;;;;;;13.25;8.70;;;10.70;99.90;;;;;;7363614;19;20019;-64
2023/08/31 04:54:35;;;;;;;12.57;8.48;;;10.70;99.90;;;;;;7375550;19;20018;-64
2023/08/31 04:57:03;;;;;;;9.38;8.45;;;10.70;99.90;;;;;;7365676;19;20025;-64
2023/08/31 04:59:32;;;;;;;10.57;8.23;;;10.70;99.90;;;;;;7371882;19;20540;-64
2023/08/31 05:01:58;;;;;;;10.02;7.80;;;10.70;99.90;;;;;;7369710;19;20488;-64
2023/08/31 05:04:26;;;;;;;11.98;9.10;;;10.70;99.90;;;;;;7368941;19;20504;-64
2023/08/31 05:06:52;;;;;;;10.73;8.30;;;10.80;99.90;;;;;;7369802;19;20018;-64
2023/08/31 05:09:18;;;;;;;12.10;8.65;;;10.70;99.90;;;;;;7370134;19;20438;-64
2023/08/31 05:11:45;;;;;;;11.50;8.40;;;10.70;99.90;;;;;;7366044;19;20015;-64
2023/08/31 05:14:11;;;;;;;12.10;9.02;;;10.70;99.90;;;;;;7367880;19;20023;-65
2023/08/31 05:16:37;;;;;;;11.50;8.50;;;10.70;99.90;;;;;;7368983;19;20023;-65
2023/08/31 05:19:03;;;;;;;9.65;8.63;;;10.80;99.90;;;;;;7373806;19;20390;-64
2023/08/31 05:21:30;;;;;;;10.00;8.57;;;10.80;99.90;;;;;;7371821;19;20022;-63
2023/08/31 05:23:56;;;;;;;10.68;8.88;;;10.80;99.90;;;;;;7366574;19;20018;-64
2023/08/31 05:26:23;;;;;;;12.27;10.10;;;10.90;99.90;;;;;;7368329;19;20584;-64
2023/08/31 05:28:49;;;;;;;13.18;9.30;;;11.00;99.90;;;;;;7373452;19;20500;-64
2023/08/31 05:31:15;;;;;;;14.27;8.93;;;11.00;99.90;;;;;;7372788;19;20358;-64
2023/08/31 05:33:42;;;;;;;13.85;9.63;;;11.00;99.90;;;;;;7371762;19;20392;-64
2023/08/31 05:36:08;;;;;;;13.05;9.50;;;11.10;99.90;;;;;;7372139;19;20029;-64
2023/08/31 05:38:34;;;;;;;16.20;10.02;;;11.20;99.90;;;;;;7371256;19;20442;-64
2023/08/31 05:41:07;;;;;;;10.95;9.73;;;11.20;99.90;;;;;;7376619;19;20442;-63
2023/08/31 05:43:36;;;;;;;17.00;10.27;;;11.30;99.90;;;;;;7372721;19;20540;-64
2023/08/31 05:46:03;;;;;;;12.38;9.82;;;11.30;99.90;;;;;;7373571;19;20032;-64
2023/08/31 05:48:32;;;;;;;9.82;8.82;;;11.50;99.90;;;;;;7372444;19;20018;-64
2023/08/31 05:50:58;;;;;;;10.15;9.15;;;11.50;99.90;;;;;;7374974;19;20533;-64
2023/08/31 05:53:25;;;;;;;12.38;8.82;;;11.70;99.90;;;;;;7370505;19;20018;-64
2023/08/31 05:55:54;;;;;;;10.02;8.90;;;11.70;99.90;;;;;;7371185;19;20442;-64
2023/08/31 05:58:20;;;;;;;13.00;8.13;;;11.80;99.90;;;;;;7372533;19;20018;-64
2023/08/31 06:00:49;;;;;;;12.35;6.85;;;11.90;99.90;;;;;;7371018;19;20018;-64
2023/08/31 06:03:16;;;;;;;8.25;7.05;;;12.10;99.90;;;;;;7370274;19;20441;-62
2023/08/31 06:05:42;;;;;;;10.82;6.10;;;12.10;99.90;;;;;;7366805;19;20026;-64
2023/08/31 06:08:08;;;;;;;10.23;6.13;;;12.20;99.90;;;;;;7370997;19;20457;-65
2023/08/31 06:10:34;;;;;;;10.10;6.03;;;12.20;99.90;;;;;;7370491;19;20358;-64
2023/08/31 06:13:01;;;;;;;7.50;5.72;;;12.20;99.90;;;;;;7370217;19;20018;-66
2023/08/31 06:15:27;;;;;;;8.95;5.72;;;12.30;99.90;;;;;;7370384;19;20018;-64
2023/08/31 06:17:54;;;;;;;8.05;5.90;;;12.30;99.90;;;;;;7369700;19;20039;-64
2023/08/31 06:20:20;;;;;;;8.15;6.32;;;12.40;99.90;;;;;;7367330;19;20517;-64
2023/08/31 06:22:46;;;;;;;7.45;5.43;;;12.60;99.90;;;;;;7366292;19;20026;-64
2023/08/31 06:25:15;;;;;;;7.85;5.15;;;12.70;99.90;;;;;;7368321;19;20390;-64
2023/08/31 06:27:43;;;;;;;7.68;5.85;;;12.70;99.90;;;;;;7370561;19;20041;-64
2023/08/31 06:30:12;;;;;;;8.57;5.65;;;12.80;99.90;;;;;;7371559;19;20018;-64
2023/08/31 06:32:38;;;;;;;9.20;5.53;;;13.00;99.90;;;;;;7370992;19;20022;-64
2023/08/31 06:35:05;;;;;;;8.85;4.93;;;13.20;99.90;;;;;;7375471;19;20037;-65
2023/08/31 06:37:31;;;;;;;6.43;4.57;;;13.40;99.90;;;;;;7376256;19;20018;-65
2023/08/31 06:39:58;;;;;;;5.50;4.00;;;13.60;99.90;;;;;;7379917;19;20014;-63
2023/08/31 06:42:24;;;;;;;8.45;4.38;;;13.80;99.90;;;;;;7377600;19;20022;-63
2023/08/31 06:45:10;;;;;;;7.95;3.83;;;14.00;99.90;;;;;;7370702;19;20019;-63
2023/08/31 06:47:38;;;;;;;6.15;3.70;;;14.00;99.90;;;;;;7374311;19;20018;-64
2023/08/31 06:50:04;;;;;;;7.22;3.88;;;14.20;99.90;;;;;;7374681;19;20564;-64
2023/08/31 06:52:51;;;;;;;8.30;3.75;;;14.30;99.90;;;;;;7372061;19;20099;-64
2023/08/31 06:55:17;;;;;;;5.10;2.97;;;14.50;99.90;;;;;;7376150;19;20018;-64
2023/08/31 06:57:43;;;;;;;6.03;3.10;;;14.70;99.90;;;;;;7377479;19;20033;-66
2023/08/31 07:00:12;;;;;;;6.20;3.03;;;14.90;99.90;;;;;;7375298;19;20037;-64
2023/08/31 07:02:42;;;;;;;7.97;3.40;;;15.00;99.90;;;;;;7376272;19;20496;-65
2023/08/31 07:05:09;;;;;;;6.35;2.63;;;15.30;99.90;;;;;;7374861;19;20699;-63
2023/08/31 07:07:36;;;;;;;10.60;3.13;;;15.50;99.90;;;;;;7373221;19;20516;-64
2023/08/31 07:10:02;;;;;;;5.70;2.75;;;15.70;99.90;;;;;;7371300;19;20619;-64
2023/08/31 07:12:30;;;;;;;6.78;2.80;;;16.00;99.90;;;;;;7375726;19;20041;-64
2023/08/31 07:14:56;;;;;;;5.22;2.20;;;16.30;99.90;;;;;;7373831;19;20101;-64
2023/08/31 07:17:22;;;;;;;6.72;2.65;;;16.50;99.90;;;;;;7378529;19;20030;-64
2023/08/31 07:19:49;;;;;;;6.75;2.05;;;16.60;99.90;;;;;;7374740;19;20045;-64
2023/08/31 07:22:15;;;;;;;6.43;2.50;;;16.60;99.90;;;;;;7377247;19;20022;-64
2023/08/31 07:24:41;;;;;;;4.13;2.20;;;16.60;99.90;;;;;;7375657;19;20018;-63
2023/08/31 07:27:08;;;;;;;6.03;1.90;;;16.70;99.90;;;;;;7378675;19;20019;-64
2023/08/31 07:29:57;;;;;;;7.00;2.10;;;16.90;99.90;;;;;;7374674;19;20018;-64
2023/08/31 07:32:23;;;;;;;5.63;2.40;;;17.20;99.90;;;;;;7376466;19;20081;-64
2023/08/31 07:34:49;;;;;;;37.08;32.97;;;17.60;99.90;;;;;;7377224;19;20387;-61
2023/08/31 07:37:37;;;;;;;7.28;4.95;;;17.90;99.90;;;;;;7375810;19;20689;-61
2023/08/31 07:40:08;;;;;;;18.60;15.98;;;17.90;99.90;;;;;;7377275;19;20454;-64
2023/08/31 07:42:35;;;;;;;6.00;2.92;;;17.60;99.90;;;;;;7375562;19;20367;-64
2023/08/31 07:45:01;;;;;;;7.10;4.40;;;17.40;99.90;;;;;;7375853;19;20054;-64
2023/08/31 07:47:27;;;;;;;7.57;2.75;;;17.40;99.90;;;;;;7376296;19;20481;-61
2023/08/31 07:49:57;;;;;;;13.88;9.40;;;17.70;99.90;;;;;;7371363;19;20026;-64
2023/08/31 07:52:24;;;;;;;10.40;5.22;;;18.00;99.90;;;;;;7373411;19;20038;-65
2023/08/31 07:54:50;;;;;;;13.07;7.03;;;17.80;99.90;;;;;;7371233;19;20108;-66
2023/08/31 07:57:17;;;;;;;4.82;1.73;;;17.80;99.90;;;;;;7373150;19;20018;-66
2023/08/31 07:59:43;;;;;;;11.30;5.22;;;17.80;99.90;;;;;;7372392;19;20057;-66
2023/08/31 08:02:09;;;;;;;7.13;4.32;;;17.90;99.90;;;;;;7376308;19;20105;-68
2023/08/31 08:04:35;;;;;;;8.93;3.90;;;18.20;99.90;;;;;;7375408;19;20026;-64
2023/08/31 08:07:03;;;;;;;5.07;1.58;;;18.10;99.90;;;;;;7375373;19;20110;-64
2023/08/31 08:09:30;;;;;;;7.65;3.15;;;17.50;99.90;;;;;;7372593;19;20047;-63
2023/08/31 08:11:56;;;;;;;10.20;4.60;;;17.10;99.90;;;;;;7375347;19;20018;-64
2023/08/31 08:14:23;;;;;;;3.60;1.50;;;16.60;99.90;;;;;;7377588;19;20620;-65
2023/08/31 08:16:49;;;;;;;5.03;2.08;;;16.20;99.90;;;;;;7376568;19;20421;-65
2023/08/31 08:19:35;;;;;;;6.68;1.98;;;16.00;99.90;;;;;;7367429;19;20022;-65
2023/08/31 08:22:02;;;;;;;13.85;9.05;;;15.90;99.90;;;;;;7375392;19;20026;-64
2023/08/31 08:24:28;;;;;;;10.02;6.35;;;16.50;99.90;;;;;;7373094;19;20070;-64
2023/08/31 08:27:17;;;;;;;5.55;1.83;;;17.30;99.90;;;;;;7373304;19;20019;-62
2023/08/31 08:29:43;;;;;;;7.45;5.10;;;18.10;99.90;;;;;;7371933;19;20022;-62
2023/08/31 08:32:10;;;;;;;4.65;1.67;;;19.00;99.90;;;;;;7375463;19;20125;-62
2023/08/31 08:34:36;;;;;;;5.30;2.47;;;19.20;99.90;;;;;;7376813;19;20492;-62
2023/08/31 08:37:03;;;;;;;5.90;1.00;;;19.80;99.90;;;;;;7372759;19;20458;-62
2023/08/31 08:39:32;;;;;;;7.55;2.55;;;20.40;99.90;;;;;;7375304;19;21003;-63
2023/08/31 08:41:59;;;;;;;3.17;0.80;;;19.80;99.90;;;;;;7374432;19;20018;-62
2023/08/31 08:44:30;;;;;;;5.22;2.95;;;19.60;99.90;;;;;;7369869;19;20085;-62
2023/08/31 08:46:58;;;;;;;6.83;2.00;;;19.00;99.90;;;;;;7374115;19;20041;-62
2023/08/31 08:49:26;;;;;;;3.72;0.90;;;18.70;99.90;;;;;;7370849;19;20433;-62
2023/08/31 08:51:54;;;;;;;4.07;0.95;;;19.20;99.90;;;;;;7376100;19;20495;-63
2023/08/31 08:54:22;;;;;;;4.03;1.52;;;19.90;99.90;;;;;;7369006;19;20358;-63
2023/08/31 08:56:48;;;;;;;4.82;1.05;;;20.00;99.90;;;;;;7373147;19;20459;-60
2023/08/31 08:59:15;;;;;;;6.82;1.10;;;18.90;99.90;;;;;;7372630;19;20019;-65
2023/08/31 09:02:01;;;;;;;2.67;0.90;;;17.00;99.90;;;;;;7373270;19;20485;-63
2023/08/31 09:04:30;;;;;;;4.35;0.85;;;15.80;99.90;;;;;;7372538;19;20042;-65
2023/08/31 09:06:56;;;;;;;3.92;0.90;;;15.20;99.90;;;;;;7371455;19;20051;-65
2023/08/31 09:09:23;;;;;;;3.40;1.45;;;15.00;99.90;;;;;;7375013;19;20014;-65
2023/08/31 09:11:55;;;;;;;4.78;0.90;;;14.90;99.90;;;;;;7372355;19;20018;-64
2023/08/31 09:14:22;;;;;;;2.08;0.50;;;14.70;99.90;;;;;;7371716;19;20123;-64
2023/08/31 09:16:50;;;;;;;3.38;1.30;;;14.70;99.90;;;;;;7373861;19;20023;-64
2023/08/31 09:19:21;;;;;;;3.33;0.60;;;14.70;99.90;;;;;;7373202;19;20050;-63
2023/08/31 09:21:48;;;;;;;;;;;15.60;99.90;;;;;;7374942;19;20026;-63
2023/08/31 09:24:17;;;;;;;4.40;1.00;;;16.70;99.90;;;;;;7371309;19;19926;-64
2023/08/31 09:26:55;;;;;;;3.72;0.90;;;17.30;99.90;;;;;;7370993;19;20154;-64
2023/08/31 09:29:22;;;;;;;3.65;1.30;;;18.10;99.90;;;;;;7368726;19;20588;-64
2023/08/31 09:31:48;;;;;;;2.80;0.77;;;19.20;99.90;;;;;;7369760;19;20031;-65
2023/08/31 09:34:15;;;;;;;4.15;0.70;;;19.70;99.90;;;;;;7372086;19;20022;-64
2023/08/31 09:37:08;;;;;;;4.10;0.75;;;19.60;99.90;;;;;;7370457;19;20064;-65
2023/08/31 09:39:41;;;;;;;3.92;0.80;;;19.10;99.90;;;;;;7365645;19;20784;-64
2023/08/31 09:42:09;;;;;;;4.15;0.60;;;18.70;99.90;;;;;;7369931;19;20111;-64
2023/08/31 09:44:41;;;;;;;2.20;0.70;;;18.80;99.90;;;;;;7367426;19;20045;-64
2023/08/31 09:47:11;;;;;;;1.35;0.50;;;18.60;99.90;;;;;;7367623;19;20038;-65
2023/08/31 09:49:41;;;;;;;3.95;1.05;;;18.60;99.90;;;;;;7369576;19;20610;-64
2023/08/31 09:52:09;;;;;;;1.33;0.50;;;19.60;99.90;;;;;;7372626;19;20023;-65
2023/08/31 09:54:40;;;;;;;4.45;0.82;;;20.50;99.90;;;;;;7370366;19;20020;-65
2023/08/31 09:57:06;;;;;;;1.70;0.50;;;20.80;99.90;;;;;;7370480;19;20019;-65
2023/08/31 09:59:35;;;;;;;2.45;0.40;;;21.60;99.90;;;;;;7370024;19;20018;-64
2023/08/31 10:02:02;;;;;;;3.83;1.25;;;22.40;99.90;;;;;;7368363;19;20018;-61
2023/08/31 10:04:32;;;;;;;2.20;0.80;;;22.00;99.90;;;;;;7368598;19;20198;-63
2023/08/31 10:07:19;;;;;;;3.85;2.22;;;21.50;99.90;;;;;;7371298;19;20464;-62
2023/08/31 10:10:08;;;;;;;7.32;2.95;;;21.20;99.90;;;;;;7371519;19;20025;-62
2023/08/31 10:12:36;;;;;;;6.60;3.45;;;21.70;99.90;;;;;;7364852;19;20049;-61
2023/08/31 10:15:04;;;;;;;4.30;0.85;;;22.30;99.90;;;;;;7368362;19;20022;-62
2023/08/31 10:17:31;;;;;;;4.13;1.73;;;22.90;99.90;;;;;;7362880;19;20024;-63
2023/08/31 10:19:58;;;;;;;2.92;0.80;;;22.90;99.90;;;;;;7367747;19;20512;-62
2023/08/31 10:22:24;;;;;;;4.07;1.45;;;22.50;99.90;;;;;;7363952;19;20014;-62
2023/08/31 10:25:03;;;;;;;3.92;1.45;;;22.70;99.90;;;;;;7367666;19;20022;-64
2023/08/31 10:27:40;;;;;;;1.30;0.50;;;22.00;99.90;;;;;;7363946;19;20050;-65
2023/08/31 10:30:15;;;;;;;3.65;0.65;;;22.10;99.90;;;;;;7366770;19;20014;-65
2023/08/31 10:32:42;;;;;;;2.70;0.70;;;23.00;99.90;;;;;;7363701;19;20018;-65
2023/08/31 10:35:09;;;;;;;2.88;0.75;;;23.50;99.90;;;;;;7365995;19;20023;-66
2023/08/31 10:37:35;;;;;;;4.10;0.90;;;23.80;99.90;;;;;;7363136;19;20489;-67
2023/08/31 10:40:14;;;;;;;2.10;0.70;;;23.50;99.90;;;;;;7365297;19;20042;-67
2023/08/31 10:43:07;;;;;;;2.33;0.50;;;22.70;99.90;;;;;;7364605;19;20015;-68
2023/08/31 10:45:44;;;;;;;4.57;0.80;;;21.60;99.90;;;;;;7362754;19;20046;-69
2023/08/31 10:48:10;;;;;;;1.77;0.60;;;20.50;99.90;;;;;;7364747;19;20019;-68
2023/08/31 10:50:47;;;;;;;2.15;0.63;;;20.00;99.90;;;;;;7363248;19;20575;-67
2023/08/31 10:53:14;;;;;;;3.35;0.80;;;20.30;99.90;;;;;;7367500;19;20019;-68
2023/08/31 10:55:53;;;;;;;4.30;2.45;;;21.30;99.90;;;;;;7365503;19;20018;-67
2023/08/31 10:58:20;;;;;;;5.68;4.07;;;21.90;99.90;;;;;;7367933;19;20010;-68
2023/08/31 11:00:50;;;;;;;4.40;1.73;;;22.40;99.90;;;;;;7366382;19;20804;-68
2023/08/31 11:03:16;;;;;;;4.13;2.10;;;23.00;99.90;;;;;;7362939;19;20802;-68
2023/08/31 11:05:52;;;;;;;6.88;5.57;;;23.50;99.90;;;;;;7364530;19;20022;-69
2023/08/31 11:08:23;;;;;;;10.35;8.50;;;24.00;99.90;;;;;;7368554;19;20339;-70
2023/08/31 11:10:49;;;;;;;2.60;0.60;;;24.20;99.90;;;;;;7366056;19;20418;-66
2023/08/31 11:13:18;;;;;;;1.55;0.50;;;23.90;99.40;;;;;;7362445;19;20086;-70
2023/08/31 11:15:48;;;;;;;12.57;10.75;;;24.20;99.40;;;;;;7367217;19;20022;-69
2023/08/31 11:18:17;;;;;;;13.00;11.65;;;24.50;99.60;;;;;;7364521;19;20057;-69
2023/08/31 11:20:44;;;;;;;12.10;10.13;;;24.70;98.20;;;;;;7358558;19;20314;-69
2023/08/31 11:23:10;;;;;;;5.72;2.67;;;24.80;94.00;;;;;;7371005;19;20093;-70
2023/08/31 11:25:37;;;;;;;3.70;1.42;;;24.40;94.50;;;;;;7366504;19;20031;-70
2023/08/31 11:28:06;;;;;;;2.78;0.90;;;24.20;93.90;;;;;;7367812;19;20022;-63
2023/08/31 11:30:33;;;;;;;4.75;2.25;;;24.50;92.40;;;;;;7369089;19;20046;-70
2023/08/31 11:33:04;;;;;;;10.18;7.57;;;24.90;93.10;;;;;;7359792;19;20386;-67
2023/08/31 11:35:40;;;;;;;6.90;4.75;;;24.60;91.00;;;;;;7363988;19;20517;-64
2023/08/31 11:38:07;;;;;;;2.90;1.02;;;25.00;89.60;;;;;;7365538;19;20018;-64
2023/08/31 11:40:33;;;;;;;4.65;1.17;;;24.50;91.10;;;;;;7369316;19;20819;-68
2023/08/31 11:43:00;;;;;;;3.30;0.85;;;25.00;91.10;;;;;;7364605;19;20030;-70
2023/08/31 11:45:27;;;;;;;4.53;1.00;;;25.00;88.10;;;;;;7364507;19;20078;-69
2023/08/31 11:47:55;;;;;;;2.88;0.90;;;24.80;91.60;;;;;;7374095;19;20019;-70
2023/08/31 11:50:23;;;;;;;2.58;1.30;;;24.50;91.00;;;;;;7371974;19;20014;-70
2023/08/31 11:52:50;;;;;;;1.48;0.55;;;24.60;91.40;;;;;;7374790;19;20018;-70
2023/08/31 11:55:17;;;;;;;4.35;2.13;;;24.90;90.70;;;;;;7369113;19;20086;-69
2023/08/31 11:57:54;;;;;;;2.85;0.68;;;24.40;91.60;;;;;;7371873;19;20022;-71
2023/08/31 12:00:22;;;;;;;2.38;0.85;;;24.50;89.30;;;;;;7365451;19;21468;-70
2023/08/31 12:03:08;;;;;;;2.42;0.90;;;24.30;91.60;;;;;;7373507;19;20023;-71
2023/08/31 12:05:48;;;;;;;2.53;0.52;;;24.60;90.50;;;;;;7369509;19;20045;-69
2023/08/31 12:08:18;;;;;;;1.88;0.70;;;24.20;91.00;;;;;;7370718;19;20018;-68
2023/08/31 12:10:46;;;;;;;2.63;0.60;;;24.30;91.40;;;;;;7370813;19;20019;-70
2023/08/31 12:13:15;;;;;;;3.88;0.82;;;24.60;91.90;;;;;;7358306;19;20015;-70
2023/08/31 12:15:42;;;;;;;2.25;0.70;;;24.70;91.10;;;;;;7369459;19;20026;-70
2023/08/31 12:18:12;;;;;;;1.67;0.50;;;24.60;89.90;;;;;;7371149;19;20022;-69
2023/08/31 12:21:04;;;;;;;1.88;0.68;;;25.00;91.90;;;;;;7370127;19;20949;-69
2023/08/31 12:23:30;;;;;;;1.65;0.70;;;25.60;91.60;;;;;;7369075;19;20383;-69
2023/08/31 12:25:56;;;;;;;4.90;1.10;;;25.80;89.40;;;;;;7371508;19;20433;-69
2023/08/31 12:28:23;;;;;;;2.67;0.80;;;26.20;90.10;;;;;;7367396;19;20664;-69
2023/08/31 12:30:52;;;;;;;2.97;1.00;;;26.00;85.90;;;;;;7365879;19;20460;-69
2023/08/31 12:33:19;;;;;;;5.00;0.80;;;25.90;84.60;;;;;;7370994;19;20082;-68
2023/08/31 12:35:46;;;;;;;1.90;0.60;;;26.20;83.60;;;;;;7367515;19;20018;-69
2023/08/31 12:38:14;;;;;;;4.18;0.95;;;26.40;82.30;;;;;;7367256;19;20072;-68
2023/08/31 12:40:40;;;;;;;3.40;1.00;;;25.10;83.70;;;;;;7368675;19;20026;-69
2023/08/31 12:43:06;;;;;;;2.45;0.77;;;25.50;84.20;;;;;;7370512;19;20029;-69
2023/08/31 12:45:33;;;;;;;3.67;0.80;;;25.10;84.70;;;;;;7367176;19;20018;-69
2023/08/31 12:48:04;;;;;;;4.03;1.00;;;25.50;86.30;;;;;;7369529;19;20014;-69
2023/08/31 12:50:30;;;;;;;5.28;1.02;;;25.70;85.60;;;;;;7372462;19;20014;-69
2023/08/31 12:52:56;;;;;;;3.05;0.70;;;26.00;84.60;;;;;;7367431;19;20027;-68